X58 weather

Indiantown Airport
Indiantown, Florida, United States

Public forecast

Using degrees Fahrenheit for public forecast. Weather courtesy of forecast.io.

METAR (pilot weather report)

Closest report is Witham Field, 14.6 nm (27.0 km) NE. Retrieved 2019/09/17 22:47 UTC (1 hour ago):

KSUA 172247Z 02012KT 7SM SKC 29/22 A2991

TAF (pilot weather forecast)

Closest forecast is Witham Field, 14.6 nm (27.0 km) NE. Retrieved 2019/09/17 18:22 UTC (6 hours ago):

TAF KSUA 171720Z 1718/1818 36008KT P6SM SCT040 SCT250 FM180300 04004KT P6SM SKC FM181400 05011KT P6SM SCT035